createdAt,value
2023-01-10T00:00:58.902Z,974.73
2023-01-10T00:01:58.904Z,974.75
2023-01-10T00:02:58.916Z,974.72
2023-01-10T00:03:58.873Z,974.70
2023-01-10T00:04:58.947Z,974.75
2023-01-10T00:05:58.852Z,974.71
2023-01-10T00:06:58.844Z,974.77
2023-01-10T00:07:58.858Z,974.78
2023-01-10T00:08:58.793Z,974.71
2023-01-10T00:09:58.829Z,974.78
2023-01-10T00:10:58.784Z,974.72
2023-01-10T00:11:58.764Z,974.76
2023-01-10T00:12:58.753Z,974.76
2023-01-10T00:13:58.734Z,974.85
2023-01-10T00:14:58.727Z,974.84
2023-01-10T00:15:58.744Z,974.88
2023-01-10T00:16:58.705Z,974.86
2023-01-10T00:17:58.697Z,974.86
2023-01-10T00:18:58.671Z,974.89
2023-01-10T00:19:58.678Z,974.93
2023-01-10T00:20:58.655Z,974.93
2023-01-10T00:21:58.644Z,974.98
2023-01-10T00:22:58.630Z,975.02
2023-01-10T00:23:58.613Z,974.97
2023-01-10T00:24:58.605Z,974.93
2023-01-10T00:25:58.583Z,975.03
2023-01-10T00:26:58.583Z,974.92
2023-01-10T00:27:58.564Z,974.92
2023-01-10T00:28:58.553Z,974.98
2023-01-10T00:29:58.556Z,975.00
2023-01-10T00:30:58.539Z,975.06
2023-01-10T00:31:58.536Z,975.03
2023-01-10T00:32:58.493Z,974.99
2023-01-10T00:33:58.484Z,974.99
2023-01-10T00:34:58.487Z,974.96
2023-01-10T00:35:58.458Z,975.01
2023-01-10T00:36:58.453Z,975.08
2023-01-10T00:37:58.434Z,975.04
2023-01-10T00:38:58.424Z,975.06
2023-01-10T00:39:58.412Z,975.07
2023-01-10T00:40:58.410Z,975.09
2023-01-10T00:41:58.389Z,975.07
2023-01-10T00:42:58.364Z,975.10
2023-01-10T00:43:58.368Z,975.09
2023-01-10T00:44:58.368Z,975.10
2023-01-10T00:45:58.417Z,975.17
2023-01-10T00:46:58.327Z,975.13
2023-01-10T00:47:58.314Z,975.15
2023-01-10T00:48:58.298Z,975.20
2023-01-10T00:49:58.293Z,975.22
2023-01-10T00:50:58.288Z,975.20
2023-01-10T00:51:58.297Z,975.28
2023-01-10T00:52:58.245Z,975.29
2023-01-10T00:53:58.226Z,975.21
2023-01-10T00:54:58.220Z,975.28
2023-01-10T00:55:58.235Z,975.26
2023-01-10T00:56:58.195Z,975.23
2023-01-10T00:57:58.188Z,975.32
2023-01-10T00:58:58.158Z,975.32
2023-01-10T00:59:58.158Z,975.30
2023-01-10T01:00:58.169Z,975.36
2023-01-10T01:01:58.225Z,975.39
2023-01-10T01:02:58.156Z,975.34
2023-01-10T01:03:58.096Z,975.38
2023-01-10T01:04:58.086Z,975.37
2023-01-10T01:05:58.082Z,975.44
2023-01-10T01:07:00.018Z,975.46
2023-01-10T01:07:58.039Z,975.45
2023-01-10T01:08:58.027Z,975.42
2023-01-10T01:09:58.029Z,975.50
2023-01-10T01:10:58.016Z,975.53
2023-01-10T01:11:58.004Z,975.57
2023-01-10T01:12:58.031Z,975.57
2023-01-10T01:13:57.966Z,975.61
2023-01-10T01:14:57.963Z,975.59
2023-01-10T01:15:58.002Z,975.60
2023-01-10T01:16:57.947Z,975.63
2023-01-10T01:17:57.924Z,975.71
2023-01-10T01:18:57.911Z,975.68
2023-01-10T01:19:57.889Z,975.74
2023-01-10T01:20:57.947Z,975.69
2023-01-10T01:21:57.889Z,975.75
2023-01-10T01:22:57.904Z,975.76
2023-01-10T01:23:57.877Z,975.82
2023-01-10T01:24:57.856Z,975.82
2023-01-10T01:25:57.830Z,975.86
2023-01-10T01:26:57.809Z,975.92
2023-01-10T01:27:57.801Z,975.91
2023-01-10T01:28:57.767Z,975.96
2023-01-10T01:29:57.760Z,975.88
2023-01-10T01:30:57.798Z,975.93
2023-01-10T01:31:57.747Z,975.88
2023-01-10T01:32:57.707Z,975.90
2023-01-10T01:33:57.700Z,975.93
2023-01-10T01:34:57.692Z,975.98
2023-01-10T01:35:57.698Z,975.93
2023-01-10T01:36:57.681Z,976.00
2023-01-10T01:37:57.675Z,976.01
2023-01-10T01:38:57.633Z,975.94
2023-01-10T01:39:57.639Z,975.98
2023-01-10T01:40:57.630Z,976.03
2023-01-10T01:41:57.606Z,976.08
2023-01-10T01:42:57.601Z,976.02
2023-01-10T01:43:57.576Z,976.05
2023-01-10T01:44:57.570Z,976.10
2023-01-10T01:45:57.583Z,976.06
2023-01-10T01:46:57.548Z,976.07
2023-01-10T01:47:57.520Z,976.14
2023-01-10T01:48:57.509Z,976.17
2023-01-10T01:49:57.530Z,976.13
2023-01-10T01:50:57.500Z,976.14
2023-01-10T01:51:57.489Z,976.22
2023-01-10T01:52:57.472Z,976.23
2023-01-10T01:53:57.478Z,976.20
2023-01-10T01:54:57.464Z,976.22
2023-01-10T01:55:57.474Z,976.21
2023-01-10T01:56:57.437Z,976.21
2023-01-10T01:57:57.410Z,976.22
2023-01-10T01:58:57.392Z,976.19
2023-01-10T01:59:57.379Z,976.21
2023-01-10T02:00:57.464Z,976.22
2023-01-10T02:01:57.380Z,976.27
2023-01-10T02:03:02.547Z,976.33
2023-01-10T02:03:58.397Z,976.30
2023-01-10T02:04:57.324Z,976.32
2023-01-10T02:05:57.312Z,976.34
2023-01-10T02:06:57.303Z,976.32
2023-01-10T02:07:57.282Z,976.32
2023-01-10T02:08:57.275Z,976.34
2023-01-10T02:09:57.259Z,976.37
2023-01-10T02:10:57.249Z,976.31
2023-01-10T02:11:57.224Z,976.30
2023-01-10T02:12:57.211Z,976.32
2023-01-10T02:13:57.208Z,976.30
2023-01-10T02:14:57.183Z,976.34
2023-01-10T02:15:57.222Z,976.42
2023-01-10T02:16:57.172Z,976.35
2023-01-10T02:17:57.160Z,976.34
2023-01-10T02:18:57.141Z,976.29
2023-01-10T02:19:57.133Z,976.37
2023-01-10T02:20:57.121Z,976.33
2023-01-10T02:21:57.119Z,976.37
2023-01-10T02:22:57.092Z,976.34
2023-01-10T02:23:57.071Z,976.36
2023-01-10T02:24:57.061Z,976.35
2023-01-10T02:25:57.061Z,976.32
2023-01-10T02:26:57.051Z,976.41
2023-01-10T02:27:57.030Z,976.40
2023-01-10T02:28:57.011Z,976.35
2023-01-10T02:29:57.037Z,976.44
2023-01-10T02:30:57.047Z,976.41
2023-01-10T02:31:56.983Z,976.48
2023-01-10T02:33:04.818Z,976.46
2023-01-10T02:33:57.950Z,976.51
2023-01-10T02:34:56.923Z,976.51
2023-01-10T02:35:56.948Z,976.57
2023-01-10T02:36:56.908Z,976.58
2023-01-10T02:37:56.903Z,976.57
2023-01-10T02:38:56.893Z,976.55
2023-01-10T02:39:56.863Z,976.67
2023-01-10T02:40:56.880Z,976.65
2023-01-10T02:41:56.861Z,976.66
2023-01-10T02:42:56.831Z,976.70
2023-01-10T02:43:56.821Z,976.68
2023-01-10T02:44:56.804Z,976.69
2023-01-10T02:45:56.815Z,976.76
2023-01-10T02:46:56.799Z,976.78
2023-01-10T02:47:56.772Z,976.81
2023-01-10T02:48:56.775Z,976.78
2023-01-10T02:49:56.742Z,976.71
2023-01-10T02:50:56.734Z,976.75
2023-01-10T02:51:56.721Z,976.80
2023-01-10T02:52:56.728Z,976.83
2023-01-10T02:53:56.699Z,976.85
2023-01-10T02:54:56.674Z,976.93
2023-01-10T02:55:56.690Z,976.91
2023-01-10T02:56:56.669Z,976.94
2023-01-10T02:57:56.632Z,976.96
2023-01-10T02:58:56.640Z,977.00
2023-01-10T02:59:56.624Z,977.00
2023-01-10T03:00:56.656Z,976.97
2023-01-10T03:01:56.688Z,976.98
2023-01-10T03:02:56.574Z,977.00
2023-01-10T03:03:56.576Z,977.01
2023-01-10T03:04:56.572Z,977.09
2023-01-10T03:05:56.566Z,977.13
2023-01-10T03:06:56.536Z,977.12
2023-01-10T03:07:56.513Z,977.11
2023-01-10T03:08:56.506Z,977.11
2023-01-10T03:09:56.492Z,977.17
2023-01-10T03:10:56.495Z,977.17
2023-01-10T03:11:56.464Z,977.20
2023-01-10T03:12:56.446Z,977.17
2023-01-10T03:13:56.483Z,977.21
2023-01-10T03:14:56.429Z,977.27
2023-01-10T03:15:56.457Z,977.25
2023-01-10T03:16:56.399Z,977.32
2023-01-10T03:17:56.385Z,977.35
2023-01-10T03:18:56.374Z,977.34
2023-01-10T03:19:56.354Z,977.29
2023-01-10T03:20:56.365Z,977.29
2023-01-10T03:21:56.335Z,977.29
2023-01-10T03:22:56.326Z,977.29
2023-01-10T03:23:56.318Z,977.37
2023-01-10T03:24:56.295Z,977.31
2023-01-10T03:25:56.311Z,977.35
2023-01-10T03:26:56.269Z,977.40
2023-01-10T03:27:56.267Z,977.36
2023-01-10T03:28:56.247Z,977.35
2023-01-10T03:29:56.234Z,977.43
2023-01-10T03:30:56.236Z,977.47
2023-01-10T03:31:56.200Z,977.47
2023-01-10T03:32:56.199Z,977.53
2023-01-10T03:33:56.195Z,977.52
2023-01-10T03:34:56.191Z,977.54
2023-01-10T03:35:56.165Z,977.61
2023-01-10T03:36:56.145Z,977.59
2023-01-10T03:37:56.125Z,977.65
2023-01-10T03:38:56.127Z,977.59
2023-01-10T03:39:56.106Z,977.63
2023-01-10T03:40:56.116Z,977.72
2023-01-10T03:41:56.081Z,977.66
2023-01-10T03:42:56.068Z,977.71
2023-01-10T03:43:56.082Z,977.70
2023-01-10T03:44:56.052Z,977.72
2023-01-10T03:45:56.035Z,977.74
2023-01-10T03:46:56.096Z,977.72
2023-01-10T03:47:56.016Z,977.84
2023-01-10T03:48:55.998Z,977.86
2023-01-10T03:49:55.978Z,977.87
2023-01-10T04:03:23.432Z,978.15
2023-01-10T04:04:23.470Z,978.11
2023-01-10T04:05:23.383Z,978.15
2023-01-10T04:06:23.385Z,978.13
2023-01-10T04:07:23.354Z,978.23
2023-01-10T04:08:23.344Z,978.20
2023-01-10T04:09:23.342Z,978.19
2023-01-10T04:10:25.185Z,978.23
2023-01-10T04:11:23.317Z,978.20
2023-01-10T04:12:23.303Z,978.23
2023-01-10T04:13:23.261Z,978.17
2023-01-10T04:14:23.264Z,978.24
2023-01-10T04:15:23.264Z,978.24
2023-01-10T04:16:23.291Z,978.26
2023-01-10T04:17:23.225Z,978.29
2023-01-10T04:18:23.208Z,978.25
2023-01-10T04:19:23.204Z,978.28
2023-01-10T04:20:23.192Z,978.33
2023-01-10T04:21:23.176Z,978.38
2023-01-10T04:22:23.173Z,978.42
2023-01-10T04:23:23.157Z,978.38
2023-01-10T04:24:23.133Z,978.49
2023-01-10T04:25:23.131Z,978.45
2023-01-10T04:26:23.134Z,978.52
2023-01-10T04:27:23.106Z,978.58
2023-01-10T04:28:24.593Z,978.55
2023-01-10T04:29:23.079Z,978.53
2023-01-10T04:30:23.065Z,978.63
2023-01-10T04:31:23.121Z,978.61
2023-01-10T04:32:23.036Z,978.67
2023-01-10T04:33:23.012Z,978.74
2023-01-10T04:34:23.010Z,978.69
2023-01-10T04:35:22.992Z,978.71
2023-01-10T04:36:23.005Z,978.74
2023-01-10T04:37:22.962Z,978.78
2023-01-10T04:38:22.975Z,978.79
2023-01-10T04:39:22.960Z,978.81
2023-01-10T04:40:22.935Z,978.82
2023-01-10T04:41:22.927Z,978.86
2023-01-10T04:42:22.895Z,978.86
2023-01-10T04:43:22.910Z,978.91
2023-01-10T04:44:22.889Z,978.90
2023-01-10T04:45:22.886Z,978.90
2023-01-10T04:46:22.876Z,978.90
2023-01-10T04:47:22.835Z,978.93
2023-01-10T04:48:22.819Z,978.95
2023-01-10T04:49:22.825Z,978.98
2023-01-10T04:50:22.806Z,979.03
2023-01-10T04:51:22.812Z,978.98
2023-01-10T04:52:22.778Z,978.99
2023-01-10T04:53:22.772Z,978.97
2023-01-10T04:54:22.758Z,979.00
2023-01-10T04:55:22.743Z,979.03
2023-01-10T04:56:22.743Z,979.12
2023-01-10T04:57:22.713Z,979.11
2023-01-10T04:58:22.705Z,979.12
2023-01-10T04:59:22.694Z,979.12
2023-01-10T05:00:22.667Z,979.09
2023-01-10T05:01:22.755Z,979.14
2023-01-10T05:02:22.727Z,979.09
2023-01-10T05:03:22.634Z,979.11
2023-01-10T05:04:22.624Z,979.18
2023-01-10T05:05:22.613Z,979.13
2023-01-10T05:06:22.614Z,979.17
2023-01-10T05:07:22.588Z,979.21
2023-01-10T05:08:22.564Z,979.21
2023-01-10T05:09:22.561Z,979.23
2023-01-10T05:10:22.534Z,979.30
2023-01-10T05:11:22.561Z,979.32
2023-01-10T05:12:22.513Z,979.34
2023-01-10T05:13:22.516Z,979.38
2023-01-10T05:14:22.497Z,979.38
2023-01-10T05:15:22.474Z,979.46
2023-01-10T05:16:22.518Z,979.53
2023-01-10T05:17:22.457Z,979.57
2023-01-10T05:18:22.453Z,979.55
2023-01-10T05:19:22.427Z,979.58
2023-01-10T05:20:22.416Z,979.62
2023-01-10T05:21:22.440Z,979.60
2023-01-10T05:22:22.398Z,979.67
2023-01-10T05:23:22.389Z,979.71
2023-01-10T05:24:22.368Z,979.72
2023-01-10T05:25:22.365Z,979.73
2023-01-10T05:26:22.358Z,979.71
2023-01-10T05:27:22.336Z,979.74
2023-01-10T05:28:22.313Z,979.78
2023-01-10T05:29:22.305Z,979.75
2023-01-10T05:30:22.304Z,979.79
2023-01-10T05:31:22.284Z,979.80
2023-01-10T05:32:22.276Z,979.80
2023-01-10T05:33:22.259Z,979.82
2023-01-10T05:34:22.226Z,979.83
2023-01-10T05:35:22.261Z,979.87
2023-01-10T05:36:22.214Z,979.90
2023-01-10T05:37:22.215Z,980.04
2023-01-10T05:38:22.210Z,979.99
2023-01-10T05:39:22.190Z,979.98
2023-01-10T05:40:22.167Z,980.01
2023-01-10T05:41:22.160Z,980.03
2023-01-10T05:42:22.153Z,980.03
2023-01-10T05:43:22.144Z,980.05
2023-01-10T05:44:22.113Z,980.03
2023-01-10T05:45:22.104Z,980.08
2023-01-10T05:46:22.087Z,980.18
2023-01-10T05:47:22.100Z,980.16
2023-01-10T05:48:22.090Z,980.21
2023-01-10T05:49:22.049Z,980.23
2023-01-10T05:50:22.025Z,980.19
2023-01-10T05:51:22.041Z,980.26
2023-01-10T05:52:22.016Z,980.23
2023-01-10T05:53:22.005Z,980.25
2023-01-10T05:54:21.993Z,980.31
2023-01-10T05:55:21.987Z,980.27
2023-01-10T05:56:21.958Z,980.33
2023-01-10T05:57:21.970Z,980.29
2023-01-10T05:58:21.953Z,980.39
2023-01-10T05:59:28.168Z,980.32
2023-01-10T06:00:24.946Z,980.35
2023-01-10T06:01:21.946Z,980.38
2023-01-10T06:02:21.969Z,980.40
2023-01-10T06:03:21.879Z,980.41
2023-01-10T06:04:21.859Z,980.47
2023-01-10T06:05:21.853Z,980.45
2023-01-10T06:06:21.820Z,980.54
2023-01-10T06:07:21.818Z,980.54
2023-01-10T06:08:21.813Z,980.67
2023-01-10T06:09:21.797Z,980.56
2023-01-10T06:10:21.781Z,980.64
2023-01-10T06:11:21.766Z,980.62
2023-01-10T06:12:21.751Z,980.68
2023-01-10T06:13:21.764Z,980.69
2023-01-10T06:14:21.732Z,980.71
2023-01-10T06:15:21.718Z,980.72
2023-01-10T06:16:21.734Z,980.80
2023-01-10T06:17:21.692Z,980.80
2023-01-10T06:18:21.678Z,980.82
2023-01-10T06:19:21.688Z,980.82
2023-01-10T06:20:21.650Z,980.93
2023-01-10T06:21:21.649Z,980.87
2023-01-10T06:22:21.628Z,980.90
2023-01-10T06:23:21.655Z,980.86
2023-01-10T06:24:21.620Z,980.87
2023-01-10T06:25:21.588Z,980.96
2023-01-10T06:26:21.612Z,980.92
2023-01-10T06:27:21.580Z,980.99
2023-01-10T06:28:21.577Z,980.97
2023-01-10T06:29:21.547Z,981.01
2023-01-10T06:30:21.518Z,981.07
2023-01-10T06:31:22.734Z,981.02
2023-01-10T06:32:21.523Z,981.03
2023-01-10T06:33:21.498Z,981.00
2023-01-10T06:34:21.467Z,981.00
2023-01-10T06:35:21.459Z,981.07
2023-01-10T06:36:21.445Z,981.05
2023-01-10T06:37:21.453Z,981.11
2023-01-10T06:38:21.444Z,981.17
2023-01-10T06:39:21.403Z,981.15
2023-01-10T06:40:21.391Z,981.16
2023-01-10T06:41:21.388Z,981.20
2023-01-10T06:42:21.393Z,981.22
2023-01-10T06:43:21.383Z,981.32
2023-01-10T06:44:21.360Z,981.30
2023-01-10T06:45:21.332Z,981.34
2023-01-10T06:46:21.393Z,981.44
2023-01-10T06:47:21.329Z,981.47
2023-01-10T06:48:21.296Z,981.53
2023-01-10T06:49:21.300Z,981.49
2023-01-10T06:50:21.268Z,981.46
2023-01-10T06:51:21.271Z,981.56
2023-01-10T06:52:21.260Z,981.60
2023-01-10T06:53:21.261Z,981.64
2023-01-10T06:54:21.228Z,981.63
2023-01-10T06:55:21.202Z,981.62
2023-01-10T06:56:21.191Z,981.64
2023-01-10T06:57:21.193Z,981.72
2023-01-10T06:58:21.171Z,981.73
2023-01-10T06:59:21.161Z,981.67
2023-01-10T07:00:21.135Z,981.83
2023-01-10T07:01:21.275Z,981.71
2023-01-10T07:02:21.156Z,981.84
2023-01-10T07:03:21.121Z,981.84
2023-01-10T07:04:21.094Z,981.86
2023-01-10T07:05:21.080Z,981.93
2023-01-10T07:06:21.076Z,981.96
2023-01-10T07:07:21.058Z,982.01
2023-01-10T07:08:21.079Z,982.02
2023-01-10T07:09:21.045Z,982.01
2023-01-10T07:10:21.019Z,982.02
2023-01-10T07:11:21.016Z,982.06
2023-01-10T07:12:20.991Z,982.11
2023-01-10T07:13:21.001Z,982.11
2023-01-10T07:14:20.965Z,982.21
2023-01-10T07:15:20.951Z,982.18
2023-01-10T07:16:21.038Z,982.21
2023-01-10T07:17:20.921Z,982.27
2023-01-10T07:18:20.923Z,982.22
2023-01-10T07:19:20.912Z,982.25
2023-01-10T07:20:20.888Z,982.32
2023-01-10T07:21:20.926Z,982.29
2023-01-10T07:22:20.852Z,982.31
2023-01-10T07:23:20.857Z,982.33
2023-01-10T07:24:20.833Z,982.35
2023-01-10T07:25:20.825Z,982.41
2023-01-10T07:26:20.804Z,982.48
2023-01-10T07:27:20.803Z,982.42
2023-01-10T07:28:20.799Z,982.46
2023-01-10T07:29:20.793Z,982.45
2023-01-10T07:30:20.742Z,982.44
2023-01-10T07:31:20.784Z,982.49
2023-01-10T07:32:20.726Z,982.49
2023-01-10T07:33:20.724Z,982.50
2023-01-10T07:34:20.717Z,982.57
2023-01-10T07:35:20.685Z,982.51
2023-01-10T07:36:20.672Z,982.62
2023-01-10T07:37:20.679Z,982.60
2023-01-10T07:38:20.666Z,982.63
2023-01-10T07:39:20.670Z,982.68
2023-01-10T07:40:20.643Z,982.65
2023-01-10T07:41:20.612Z,982.67
2023-01-10T07:42:20.610Z,982.74
2023-01-10T07:43:20.608Z,982.71
2023-01-10T07:44:20.659Z,982.77
2023-01-10T07:45:20.565Z,982.81
2023-01-10T07:46:20.567Z,982.88
2023-01-10T07:47:20.544Z,982.85
2023-01-10T07:48:20.533Z,982.95
2023-01-10T07:49:20.541Z,982.96
2023-01-10T07:50:20.509Z,982.92
2023-01-10T07:51:20.528Z,982.97
2023-01-10T07:52:20.488Z,982.97
2023-01-10T07:53:20.474Z,983.02
2023-01-10T07:54:20.471Z,982.98
2023-01-10T07:55:20.435Z,982.98
2023-01-10T07:56:20.427Z,983.03
2023-01-10T07:57:20.473Z,983.02
2023-01-10T07:58:20.395Z,982.99
2023-01-10T07:59:20.397Z,983.07
2023-01-10T08:00:20.405Z,983.06
2023-01-10T08:01:20.408Z,983.02
2023-01-10T08:02:20.414Z,983.09
2023-01-10T08:03:20.414Z,983.08
2023-01-10T08:04:20.319Z,983.10
2023-01-10T08:05:20.318Z,983.09
2023-01-10T08:06:20.310Z,983.11
2023-01-10T08:07:20.286Z,983.11
2023-01-10T08:08:20.265Z,983.18
2023-01-10T08:09:20.246Z,983.14
2023-01-10T08:10:20.260Z,983.21
2023-01-10T08:11:20.256Z,983.21
2023-01-10T08:12:20.216Z,983.22
2023-01-10T08:13:20.214Z,983.25
2023-01-10T08:14:20.236Z,983.30
2023-01-10T08:15:20.216Z,983.29
2023-01-10T08:16:20.221Z,983.28
2023-01-10T08:17:20.166Z,983.31
2023-01-10T08:18:20.152Z,983.33
2023-01-10T08:19:20.127Z,983.26
2023-01-10T08:20:20.129Z,983.31
2023-01-10T08:21:20.122Z,983.35
2023-01-10T08:22:20.097Z,983.34
2023-01-10T08:23:20.201Z,983.36
2023-01-10T08:24:20.074Z,983.38
2023-01-10T08:25:20.066Z,983.32
2023-01-10T08:26:20.056Z,983.36
2023-01-10T08:27:20.029Z,983.33
2023-01-10T08:28:20.024Z,983.34
2023-01-10T08:29:20.001Z,983.34
2023-01-10T08:30:20.009Z,983.37
2023-01-10T08:31:20.123Z,983.39
2023-01-10T08:32:19.964Z,983.42
2023-01-10T08:33:19.961Z,983.43
2023-01-10T08:34:19.933Z,983.39
2023-01-10T08:35:19.935Z,983.44
2023-01-10T08:36:19.955Z,983.45
2023-01-10T08:37:19.909Z,983.41
2023-01-10T08:38:19.879Z,983.46
2023-01-10T08:39:19.893Z,983.50
2023-01-10T08:40:19.882Z,983.54
2023-01-10T08:41:19.856Z,983.52
2023-01-10T08:42:19.845Z,983.55
2023-01-10T08:43:19.848Z,983.61
2023-01-10T08:44:19.807Z,983.64
2023-01-10T08:45:19.818Z,983.63
2023-01-10T08:46:19.833Z,983.60
2023-01-10T08:47:19.780Z,983.71
2023-01-10T08:48:19.750Z,983.70
2023-01-10T08:49:19.763Z,983.71
2023-01-10T08:50:19.756Z,983.72
2023-01-10T08:51:19.728Z,983.71
2023-01-10T08:52:19.720Z,983.70
2023-01-10T08:53:19.703Z,983.70
2023-01-10T08:54:19.696Z,983.68
2023-01-10T08:55:19.682Z,983.68
2023-01-10T08:56:19.660Z,983.67
2023-01-10T08:57:19.654Z,983.64
2023-01-10T08:58:19.645Z,983.68
2023-01-10T08:59:19.619Z,983.63
2023-01-10T09:00:19.622Z,983.66
2023-01-10T09:01:19.728Z,983.71
2023-01-10T09:02:19.628Z,983.67
2023-01-10T09:03:19.630Z,983.66
2023-01-10T09:04:19.576Z,983.77
2023-01-10T09:05:27.111Z,983.80
2023-01-10T09:06:20.573Z,983.80
2023-01-10T09:07:19.513Z,983.90
2023-01-10T09:08:19.516Z,983.93
2023-01-10T09:09:19.505Z,983.94
2023-01-10T09:10:19.503Z,983.97
2023-01-10T09:11:19.474Z,983.98
2023-01-10T09:12:19.480Z,984.04
2023-01-10T09:13:19.441Z,984.03
2023-01-10T09:14:19.430Z,984.04
2023-01-10T09:15:19.422Z,984.08
2023-01-10T09:16:19.473Z,984.09
2023-01-10T09:17:19.392Z,984.03
2023-01-10T09:18:21.351Z,984.11
2023-01-10T09:19:19.386Z,984.16
2023-01-10T09:20:19.372Z,984.14
2023-01-10T09:21:19.335Z,984.14
2023-01-10T09:22:19.332Z,984.23
2023-01-10T09:23:19.312Z,984.16
2023-01-10T09:24:19.328Z,984.22
2023-01-10T09:25:19.300Z,984.27
2023-01-10T09:26:19.271Z,984.30
2023-01-10T09:27:19.284Z,984.31
2023-01-10T09:28:19.272Z,984.37
2023-01-10T09:29:19.231Z,984.45
2023-01-10T09:30:19.293Z,984.37
2023-01-10T09:31:19.260Z,984.37
2023-01-10T09:32:19.193Z,984.34
2023-01-10T09:33:19.199Z,984.44
2023-01-10T09:34:19.187Z,984.37
2023-01-10T09:35:19.164Z,984.42
2023-01-10T09:36:19.167Z,984.36
2023-01-10T09:37:19.153Z,984.42
2023-01-10T09:38:19.162Z,984.35
2023-01-10T09:39:19.112Z,984.41
2023-01-10T09:40:19.132Z,984.41
2023-01-10T09:41:19.090Z,984.53
2023-01-10T09:42:19.092Z,984.53
2023-01-10T09:43:19.082Z,984.54
2023-01-10T09:44:19.064Z,984.61
2023-01-10T09:45:19.053Z,984.59
2023-01-10T09:46:19.075Z,984.62
2023-01-10T09:47:22.769Z,984.62
2023-01-10T10:03:39.633Z,984.45
2023-01-10T10:04:37.590Z,984.35
2023-01-10T10:05:37.489Z,984.34
2023-01-10T10:06:37.462Z,984.28
2023-01-10T10:07:37.436Z,984.33
2023-01-10T10:08:37.444Z,984.29
2023-01-10T10:09:37.435Z,984.32
2023-01-10T10:10:37.415Z,984.37
2023-01-10T10:11:37.408Z,984.36
2023-01-10T10:12:37.375Z,984.30
2023-01-10T10:13:37.357Z,984.33
2023-01-10T10:14:37.344Z,984.30
2023-01-10T10:15:37.353Z,984.19
2023-01-10T10:16:37.407Z,984.18
2023-01-10T10:17:37.300Z,984.22
2023-01-10T10:18:37.301Z,984.29
2023-01-10T10:19:37.285Z,984.32
2023-01-10T10:20:37.279Z,984.30
2023-01-10T10:21:37.254Z,984.34
2023-01-10T10:22:37.260Z,984.40
2023-01-10T10:23:37.243Z,984.38
2023-01-10T10:24:37.207Z,984.44
2023-01-10T10:25:37.215Z,984.49
2023-01-10T10:26:37.196Z,984.65
2023-01-10T10:27:37.211Z,984.56
2023-01-10T10:28:43.733Z,984.56
2023-01-10T10:29:38.148Z,984.62
2023-01-10T10:30:37.147Z,984.57
2023-01-10T10:31:37.158Z,984.63
2023-01-10T10:32:37.104Z,984.67
2023-01-10T10:33:37.095Z,984.65
2023-01-10T10:34:37.079Z,984.69
2023-01-10T10:35:37.117Z,984.76
2023-01-10T10:36:37.066Z,984.76
2023-01-10T10:37:37.057Z,984.72
2023-01-10T10:38:37.037Z,984.79
2023-01-10T10:39:37.019Z,984.68
2023-01-10T10:40:37.020Z,984.65
2023-01-10T10:41:36.989Z,984.76
2023-01-10T10:42:36.990Z,984.70
2023-01-10T10:43:36.980Z,984.69
2023-01-10T10:44:36.957Z,984.67
2023-01-10T10:45:36.971Z,984.74
2023-01-10T10:46:36.918Z,984.65
2023-01-10T10:47:36.927Z,984.64
2023-01-10T10:48:36.943Z,984.68
2023-01-10T10:49:36.889Z,984.72
2023-01-10T10:50:36.888Z,984.74
2023-01-10T10:51:36.862Z,984.75
2023-01-10T10:52:36.867Z,984.90
2023-01-10T10:53:36.837Z,984.80
2023-01-10T10:54:36.827Z,984.84
2023-01-10T10:55:36.818Z,984.86
2023-01-10T10:56:36.894Z,984.88
2023-01-10T10:57:36.775Z,984.91
2023-01-10T10:58:36.767Z,984.92
2023-01-10T10:59:36.771Z,984.83
2023-01-10T11:00:36.791Z,984.87
2023-01-10T11:01:37.001Z,984.86
2023-01-10T11:02:36.717Z,984.87
2023-01-10T11:03:36.714Z,984.84
2023-01-10T11:04:36.711Z,984.90
2023-01-10T11:05:36.687Z,984.90
2023-01-10T11:06:36.699Z,984.87
2023-01-10T11:07:36.659Z,984.88
2023-01-10T11:08:36.637Z,984.83
2023-01-10T11:09:36.627Z,984.82
2023-01-10T11:10:36.617Z,984.82
2023-01-10T11:11:36.631Z,984.83
2023-01-10T11:12:36.612Z,984.82
2023-01-10T11:13:36.572Z,984.84
2023-01-10T11:14:36.568Z,984.90
2023-01-10T11:15:36.549Z,984.78
2023-01-10T11:16:36.739Z,984.82
2023-01-10T11:17:36.530Z,984.85
2023-01-10T11:18:36.529Z,984.78
2023-01-10T11:19:36.490Z,984.75
2023-01-10T11:20:36.495Z,984.83
2023-01-10T11:21:36.481Z,984.78
2023-01-10T11:22:36.462Z,984.84
2023-01-10T11:23:36.463Z,984.87
2023-01-10T11:24:36.451Z,984.89
2023-01-10T11:25:36.410Z,984.88
2023-01-10T11:26:36.429Z,984.82
2023-01-10T11:27:36.401Z,984.90
2023-01-10T11:28:36.397Z,984.88
2023-01-10T11:29:36.358Z,984.90
2023-01-10T11:30:36.358Z,984.94
2023-01-10T11:31:36.440Z,984.95
2023-01-10T11:32:36.329Z,984.92
2023-01-10T11:33:36.363Z,984.95
2023-01-10T11:34:36.298Z,984.99
2023-01-10T11:35:36.291Z,984.97
2023-01-10T11:36:36.289Z,984.97
2023-01-10T11:37:36.258Z,985.00
2023-01-10T11:38:36.270Z,985.02
2023-01-10T11:39:36.227Z,985.02
2023-01-10T11:40:36.229Z,985.01
2023-01-10T11:41:36.222Z,984.98
2023-01-10T11:42:36.213Z,984.94
2023-01-10T11:43:36.169Z,984.90
2023-01-10T11:44:36.180Z,984.86
2023-01-10T11:45:36.284Z,984.85
2023-01-10T11:46:36.161Z,984.85
2023-01-10T11:47:41.662Z,984.83
2023-01-10T11:49:03.938Z,984.84
2023-01-10T11:49:37.102Z,984.91
2023-01-10T11:50:36.095Z,984.79
2023-01-10T11:51:36.082Z,984.79
2023-01-10T11:52:36.063Z,984.78
2023-01-10T11:53:36.051Z,984.86
2023-01-10T11:54:36.052Z,984.88
2023-01-10T11:55:36.033Z,984.88
2023-01-10T11:56:36.038Z,984.83
2023-01-10T11:57:36.011Z,984.84
2023-01-10T11:58:36.004Z,984.90
2023-01-10T11:59:35.992Z,984.86
2023-01-10T12:00:35.995Z,984.86
2023-01-10T12:01:35.979Z,984.88
2023-01-10T12:02:35.997Z,984.87
2023-01-10T12:03:35.933Z,984.89
2023-01-10T12:04:35.912Z,984.93
2023-01-10T12:05:36.014Z,984.91
2023-01-10T12:06:35.908Z,984.97
2023-01-10T12:07:35.887Z,984.92
2023-01-10T12:08:35.853Z,984.99
2023-01-10T12:09:35.842Z,984.87
2023-01-10T12:10:35.827Z,984.87
2023-01-10T12:11:35.860Z,984.86
2023-01-10T12:12:35.844Z,984.86
2023-01-10T12:13:35.791Z,984.91
2023-01-10T12:14:35.775Z,984.84
2023-01-10T12:15:35.800Z,984.90
2023-01-10T12:16:35.839Z,984.87
2023-01-10T12:17:35.753Z,984.90
2023-01-10T12:18:35.723Z,984.92
2023-01-10T12:19:35.716Z,984.91
2023-01-10T12:20:35.710Z,984.92
2023-01-10T12:21:35.696Z,984.94
2023-01-10T12:22:35.679Z,984.94
2023-01-10T12:23:35.676Z,984.90
2023-01-10T12:24:35.643Z,984.93
2023-01-10T12:25:35.658Z,984.89
2023-01-10T12:26:35.635Z,984.90
2023-01-10T12:27:35.666Z,984.95
2023-01-10T12:28:35.596Z,984.95
2023-01-10T12:29:35.596Z,984.96
2023-01-10T12:30:35.606Z,984.95
2023-01-10T12:31:35.553Z,984.95
2023-01-10T12:32:35.554Z,985.00
2023-01-10T12:33:35.537Z,984.97
2023-01-10T12:34:35.525Z,985.01
2023-01-10T12:35:35.527Z,984.96
2023-01-10T12:36:35.516Z,984.95
2023-01-10T12:37:35.511Z,985.00
2023-01-10T12:38:35.525Z,985.03
2023-01-10T12:39:35.468Z,984.90
2023-01-10T12:40:35.484Z,984.97
2023-01-10T12:41:35.435Z,984.92
2023-01-10T12:42:35.454Z,984.95
2023-01-10T12:43:35.417Z,984.98
2023-01-10T12:44:35.380Z,984.95
2023-01-10T12:45:35.387Z,984.92
2023-01-10T12:47:04.599Z,984.95
2023-01-10T12:47:36.409Z,984.91
2023-01-10T12:48:35.334Z,984.89
2023-01-10T12:49:35.341Z,984.94
2023-01-10T12:50:35.313Z,984.93
2023-01-10T12:51:35.317Z,984.93
2023-01-10T12:52:35.311Z,985.00
2023-01-10T12:53:35.302Z,984.99
2023-01-10T12:54:35.247Z,984.97
2023-01-10T12:55:35.245Z,985.04
2023-01-10T12:56:35.241Z,985.04